createdAt,value
2024-05-09T00:02:24.711Z,101405.30
2024-05-09T00:04:52.410Z,101406.23
2024-05-09T00:07:20.087Z,101405.88
2024-05-09T00:09:50.506Z,101403.02
2024-05-09T00:12:18.054Z,101403.70
2024-05-09T00:14:45.610Z,101408.00
2024-05-09T00:17:13.262Z,101404.81
2024-05-09T00:19:40.890Z,101407.30
2024-05-09T00:22:08.593Z,101402.73
2024-05-09T00:24:36.260Z,101401.50
2024-05-09T00:27:04.437Z,101400.63
2024-05-09T00:29:32.325Z,101404.32
2024-05-09T00:32:00.146Z,101402.91
2024-05-09T00:34:28.022Z,101409.95
2024-05-09T00:36:55.673Z,101415.31
2024-05-09T00:39:23.236Z,101406.45
2024-05-09T00:41:50.746Z,101407.71
2024-05-09T00:44:18.386Z,101407.69
2024-05-09T00:46:45.922Z,101407.88
2024-05-09T00:49:13.733Z,101407.46
2024-05-09T00:51:41.733Z,101406.17
2024-05-09T00:54:09.290Z,101407.38
2024-05-09T00:56:36.885Z,101409.48
2024-05-09T00:59:04.679Z,101414.15
2024-05-09T01:01:32.471Z,101407.38
2024-05-09T01:04:00.247Z,101408.27
2024-05-09T01:06:27.845Z,101410.74
2024-05-09T01:08:55.611Z,101410.64
2024-05-09T01:11:23.238Z,101409.89
2024-05-09T01:13:51.014Z,101412.71
2024-05-09T01:16:18.725Z,101416.52
2024-05-09T01:18:46.340Z,101414.98
2024-05-09T01:21:14.146Z,101414.66
2024-05-09T01:23:42.018Z,101413.14
2024-05-09T01:26:09.646Z,101413.16
2024-05-09T01:28:37.153Z,101409.38
2024-05-09T01:31:04.824Z,101409.00
2024-05-09T01:33:32.830Z,101416.20
2024-05-09T01:36:00.726Z,101416.83
2024-05-09T01:38:28.453Z,101424.73
2024-05-09T01:40:56.094Z,101421.33
2024-05-09T01:43:23.862Z,101429.09
2024-05-09T01:45:51.470Z,101429.96
2024-05-09T01:48:19.180Z,101428.58
2024-05-09T01:50:46.776Z,101432.77
2024-05-09T01:53:15.211Z,101430.10
2024-05-09T01:55:43.655Z,101429.27
2024-05-09T01:58:11.284Z,101422.90
2024-05-09T02:00:42.177Z,101421.71
2024-05-09T02:03:14.696Z,101425.62
2024-05-09T02:05:45.724Z,101422.35
2024-05-09T02:08:18.072Z,101423.91
2024-05-09T02:10:47.604Z,101423.46
2024-05-09T02:13:16.270Z,101421.85
2024-05-09T02:15:44.109Z,101419.94
2024-05-09T02:18:12.167Z,101428.44
2024-05-09T02:20:41.174Z,101424.16
2024-05-09T02:23:09.566Z,101426.13
2024-05-09T02:25:37.408Z,101425.74
2024-05-09T02:28:05.586Z,101425.41
2024-05-09T02:30:39.282Z,101424.77
2024-05-09T02:33:11.447Z,101421.80
2024-05-09T02:35:41.608Z,101419.27
2024-05-09T02:38:09.537Z,101419.40
2024-05-09T02:40:39.206Z,101421.56
2024-05-09T02:43:08.863Z,101422.21
2024-05-09T02:45:38.353Z,101427.35
2024-05-09T02:48:06.978Z,101429.15
2024-05-09T02:50:38.987Z,101424.27
2024-05-09T02:53:08.246Z,101422.66
2024-05-09T02:55:36.874Z,101420.80
2024-05-09T02:58:04.858Z,101421.59
2024-05-09T03:00:39.104Z,101421.14
2024-05-09T03:03:12.396Z,101418.25
2024-05-09T03:05:43.535Z,101423.34
2024-05-09T03:08:11.433Z,101429.65
2024-05-09T03:10:39.891Z,101433.25
2024-05-09T03:13:12.253Z,101429.45
2024-05-09T03:15:40.643Z,101430.33
2024-05-09T03:18:08.483Z,101429.86
2024-05-09T03:20:37.054Z,101426.50
2024-05-09T03:23:06.636Z,101430.95
2024-05-09T03:25:34.611Z,101431.09
2024-05-09T03:28:02.289Z,101428.60
2024-05-09T03:30:39.074Z,101433.58
2024-05-09T03:33:11.355Z,101439.38
2024-05-09T03:35:39.144Z,101434.23
2024-05-09T03:38:06.867Z,101435.98
2024-05-09T03:40:34.469Z,101435.42
2024-05-09T03:43:02.150Z,101437.23
2024-05-09T03:45:29.692Z,101439.17
2024-05-09T03:47:57.585Z,101443.73
2024-05-09T03:50:30.396Z,101442.67
2024-05-09T03:53:02.811Z,101435.81
2024-05-09T03:55:30.706Z,101436.23
2024-05-09T03:57:58.332Z,101436.67
2024-05-09T04:00:34.402Z,101434.20
2024-05-09T04:03:07.805Z,101435.20
2024-05-09T04:05:39.347Z,101428.20
2024-05-09T04:08:07.295Z,101427.06
2024-05-09T04:10:35.572Z,101428.48
2024-05-09T04:13:04.055Z,101427.59
2024-05-09T04:15:32.319Z,101429.00
2024-05-09T04:18:01.037Z,101433.73
2024-05-09T04:20:37.276Z,101431.21
2024-05-09T04:23:10.859Z,101429.29
2024-05-09T04:25:41.163Z,101431.83
2024-05-09T04:28:08.716Z,101434.77
2024-05-09T04:30:39.603Z,101433.04
2024-05-09T04:33:13.720Z,101435.98
2024-05-09T04:35:43.345Z,101434.94
2024-05-09T04:38:12.646Z,101433.93
2024-05-09T04:40:40.275Z,101437.06
2024-05-09T04:43:13.978Z,101437.61
2024-05-09T04:45:41.596Z,101438.38
2024-05-09T04:48:09.480Z,101438.04
2024-05-09T04:50:39.255Z,101435.93
2024-05-09T04:53:09.125Z,101440.64
2024-05-09T04:55:38.781Z,101440.54
2024-05-09T04:58:09.838Z,101440.52
2024-05-09T05:00:41.338Z,101437.25
2024-05-09T05:03:12.794Z,101440.24
2024-05-09T05:05:44.483Z,101443.00
2024-05-09T05:08:17.539Z,101439.86
2024-05-09T05:10:46.882Z,101441.98
2024-05-09T05:13:24.796Z,101439.25
2024-05-09T05:15:55.171Z,101444.10
2024-05-09T05:18:23.253Z,101442.90
2024-05-09T05:20:51.312Z,101447.41
2024-05-09T05:23:19.600Z,101446.35
2024-05-09T05:25:52.526Z,101449.46
2024-05-09T05:28:20.359Z,101452.02
2024-05-09T05:30:47.955Z,101455.60
2024-05-09T05:33:17.752Z,101459.27
2024-05-09T05:35:45.399Z,101447.30
2024-05-09T05:38:13.169Z,101443.39
2024-05-09T05:40:41.274Z,101440.92
2024-05-09T05:43:10.042Z,101442.84
2024-05-09T05:45:38.623Z,101443.83
2024-05-09T05:48:07.403Z,101440.06
2024-05-09T05:50:37.620Z,101437.10
2024-05-09T05:53:06.810Z,101440.14
2024-05-09T05:55:35.190Z,101440.35
2024-05-09T05:58:02.882Z,101447.13
2024-05-09T06:00:37.819Z,101445.59
2024-05-09T06:03:11.811Z,101446.40
2024-05-09T06:05:40.705Z,101449.06
2024-05-09T06:08:09.239Z,101439.59
2024-05-09T06:10:39.880Z,101438.65
2024-05-09T06:13:12.167Z,101440.73
2024-05-09T06:15:40.184Z,101437.39
2024-05-09T06:18:08.206Z,101435.40
2024-05-09T06:20:38.031Z,101437.79
2024-05-09T06:23:06.772Z,101444.03
2024-05-09T06:25:35.604Z,101440.73
2024-05-09T06:28:04.360Z,101441.51
2024-05-09T06:30:38.624Z,101440.31
2024-05-09T06:33:10.607Z,101439.14
2024-05-09T06:35:39.936Z,101436.79
2024-05-09T06:38:10.772Z,101439.55
2024-05-09T06:40:40.816Z,101440.63
2024-05-09T06:43:11.246Z,101434.34
2024-05-09T06:45:39.364Z,101432.73
2024-05-09T06:48:08.105Z,101434.05
2024-05-09T06:50:38.199Z,101435.09
2024-05-09T06:53:07.792Z,101432.86
2024-05-09T06:55:36.028Z,101429.22
2024-05-09T06:58:06.951Z,101432.61
2024-05-09T07:00:39.375Z,101433.98
2024-05-09T07:03:10.792Z,101432.30
2024-05-09T07:05:39.693Z,101432.80
2024-05-09T07:08:07.535Z,101429.64
2024-05-09T07:10:36.370Z,101422.75
2024-05-09T07:13:11.887Z,101427.98
2024-05-09T07:15:40.190Z,101422.92
2024-05-09T07:18:11.512Z,101424.12
2024-05-09T07:20:40.113Z,101426.25
2024-05-09T07:23:11.490Z,101426.56
2024-05-09T07:25:39.821Z,101423.23
2024-05-09T07:28:17.894Z,101419.19
2024-05-09T07:30:45.544Z,101420.58
2024-05-09T07:33:17.474Z,101421.17
2024-05-09T07:35:45.305Z,101427.94
2024-05-09T07:38:13.087Z,101419.39
2024-05-09T07:40:41.426Z,101426.45
2024-05-09T07:43:11.317Z,101421.16
2024-05-09T07:45:48.648Z,101421.02
2024-05-09T07:52:37.632Z,101417.92
2024-05-09T07:53:47.909Z,101418.58
2024-05-09T07:56:21.051Z,101424.59
2024-05-09T07:58:50.776Z,101425.79
2024-05-09T08:01:19.369Z,101418.59
2024-05-09T08:03:50.013Z,101411.66
2024-05-09T08:06:17.743Z,101415.29
2024-05-09T08:08:47.068Z,101417.10
2024-05-09T08:11:14.746Z,101416.53
2024-05-09T08:13:42.227Z,101421.27
2024-05-09T08:16:09.799Z,101422.70
2024-05-09T08:18:37.527Z,101419.91
2024-05-09T08:21:05.371Z,101420.84
2024-05-09T08:23:32.888Z,101417.02
2024-05-09T08:26:00.367Z,101418.02
2024-05-09T08:28:28.320Z,101413.65
2024-05-09T08:30:56.723Z,101413.70
2024-05-09T08:33:24.577Z,101411.50
2024-05-09T08:35:54.479Z,101403.64
2024-05-09T08:38:22.119Z,101397.91
2024-05-09T08:40:50.376Z,101402.36
2024-05-09T08:43:19.269Z,101402.86
2024-05-09T08:45:47.211Z,101397.84
2024-05-09T08:48:16.083Z,101392.66
2024-05-09T08:50:45.395Z,101398.13
2024-05-09T08:53:14.985Z,101400.71
2024-05-09T08:55:44.024Z,101398.30
2024-05-09T08:58:16.734Z,101396.27
2024-05-09T09:00:46.010Z,101395.60
2024-05-09T09:03:18.513Z,101393.35
2024-05-09T09:05:50.507Z,101389.18
2024-05-09T09:08:18.113Z,101383.66
2024-05-09T09:10:46.155Z,101390.90
2024-05-09T09:13:13.719Z,101385.80
2024-05-09T09:15:50.670Z,101389.33
2024-05-09T09:18:18.851Z,101393.94
2024-05-09T09:20:47.572Z,101394.02
2024-05-09T09:23:15.294Z,101393.92
2024-05-09T09:25:43.000Z,101393.98
2024-05-09T09:28:12.122Z,101386.27
2024-05-09T09:30:40.703Z,101387.35
2024-05-09T09:33:08.816Z,101389.35
2024-05-09T09:35:36.379Z,101386.75
2024-05-09T09:38:05.648Z,101388.05
2024-05-09T09:40:37.286Z,101385.55
2024-05-09T09:43:11.855Z,101383.70
2024-05-09T09:45:39.779Z,101378.52
2024-05-09T09:48:07.836Z,101376.05
2024-05-09T09:50:35.677Z,101372.43
2024-05-09T09:53:03.869Z,101374.38
2024-05-09T09:55:32.273Z,101375.77
2024-05-09T09:58:00.027Z,101369.13
2024-05-09T10:00:32.780Z,101375.33
2024-05-09T10:03:02.049Z,101371.40
2024-05-09T10:05:30.284Z,101372.79
2024-05-09T10:07:58.526Z,101370.28
2024-05-09T10:10:32.176Z,101373.05
2024-05-09T10:13:07.404Z,101371.19
2024-05-09T10:15:50.868Z,101366.40
2024-05-09T10:18:28.025Z,101367.55
2024-05-09T10:20:59.188Z,101363.30
2024-05-09T10:23:28.488Z,101362.49
2024-05-09T10:25:57.009Z,101366.11
2024-05-09T10:28:28.256Z,101360.42
2024-05-09T10:31:06.642Z,101363.82
2024-05-09T10:33:38.556Z,101357.24
2024-05-09T10:36:32.748Z,101363.34
2024-05-09T10:39:00.425Z,101365.19
2024-05-09T10:41:28.348Z,101360.89
2024-05-09T10:43:55.966Z,101355.91
2024-05-09T10:46:23.650Z,101353.80
2024-05-09T10:48:52.221Z,101354.27
2024-05-09T10:51:19.986Z,101348.34
2024-05-09T10:53:47.780Z,101345.77
2024-05-09T10:56:15.554Z,101344.79
2024-05-09T10:58:43.251Z,101339.11
2024-05-09T11:01:11.503Z,101335.77
2024-05-09T11:03:39.787Z,101338.98
2024-05-09T11:06:09.373Z,101331.30
2024-05-09T11:08:36.962Z,101330.27
2024-05-09T11:11:06.499Z,101328.30
2024-05-09T11:13:34.886Z,101327.76
2024-05-09T11:16:03.325Z,101326.57
2024-05-09T11:18:35.127Z,101322.32
2024-05-09T11:21:11.603Z,101325.33
2024-05-09T11:23:39.150Z,101318.11
2024-05-09T11:26:06.762Z,101311.44
2024-05-09T11:28:34.451Z,101310.23
2024-05-09T11:31:09.970Z,101305.84
2024-05-09T11:33:42.490Z,101306.45
2024-05-09T11:36:10.331Z,101301.94
2024-05-09T11:38:37.880Z,101295.73
2024-05-09T11:41:05.872Z,101297.63
2024-05-09T11:43:33.679Z,101299.24
2024-05-09T11:46:02.415Z,101293.92
2024-05-09T11:48:30.651Z,101292.31
2024-05-09T11:50:58.418Z,101287.92
2024-05-09T11:53:26.032Z,101292.60
2024-05-09T11:55:53.577Z,101290.17
2024-05-09T11:58:22.473Z,101286.05
2024-05-09T12:00:50.334Z,101285.32
2024-05-09T12:03:18.168Z,101271.29
2024-05-09T12:05:45.983Z,101270.05
2024-05-09T12:08:13.967Z,101267.41
2024-05-09T12:10:41.898Z,101264.72
2024-05-09T12:13:09.638Z,101270.56
2024-05-09T12:15:38.275Z,101268.98
2024-05-09T12:18:07.574Z,101267.19
2024-05-09T12:20:38.764Z,101270.50
2024-05-09T12:23:08.837Z,101263.05
2024-05-09T12:25:38.144Z,101271.15
2024-05-09T12:28:05.935Z,101266.96
2024-05-09T12:30:38.269Z,101261.75
2024-05-09T12:33:12.458Z,101260.56
2024-05-09T12:35:44.032Z,101261.66
2024-05-09T12:38:14.486Z,101253.06
2024-05-09T12:40:42.466Z,101251.27
2024-05-09T12:43:11.389Z,101252.95
2024-05-09T12:45:40.046Z,101248.83
2024-05-09T12:48:10.825Z,101244.77
2024-05-09T12:50:38.678Z,101240.54
2024-05-09T12:53:06.253Z,101238.00
2024-05-09T12:55:44.094Z,101241.38
2024-05-09T12:58:17.670Z,101241.23
2024-05-09T13:00:45.547Z,101234.46
2024-05-09T13:03:13.553Z,101235.98
2024-05-09T13:05:41.955Z,101227.36
2024-05-09T13:08:09.898Z,101223.45
2024-05-09T13:10:37.489Z,101217.44
2024-05-09T13:13:05.229Z,101217.91
2024-05-09T13:15:34.304Z,101218.71
2024-05-09T13:18:03.651Z,101219.54
2024-05-09T13:20:34.518Z,101215.20
2024-05-09T13:23:04.663Z,101211.04
2024-05-09T13:25:34.194Z,101205.75
2024-05-09T13:28:02.814Z,101201.45
2024-05-09T13:30:38.822Z,101200.95
2024-05-09T13:33:11.241Z,101210.49
2024-05-09T13:35:47.654Z,101201.20
2024-05-09T13:38:19.071Z,101198.85
2024-05-09T13:40:47.312Z,101198.44
2024-05-09T13:43:15.579Z,101192.08
2024-05-09T13:45:43.293Z,101191.80
2024-05-09T13:48:11.140Z,101192.98
2024-05-09T13:50:39.163Z,101188.63
2024-05-09T13:53:08.191Z,101185.92
2024-05-09T13:55:39.990Z,101179.19
2024-05-09T13:58:08.533Z,101176.69
2024-05-09T14:00:46.357Z,101173.75
2024-05-09T14:03:18.430Z,101167.25
2024-05-09T14:06:27.696Z,101163.13
2024-05-09T14:08:55.310Z,101155.23
2024-05-09T14:11:23.368Z,101149.20
2024-05-09T14:13:50.919Z,101156.02
2024-05-09T14:16:18.566Z,101149.04
2024-05-09T14:18:46.318Z,101142.66
2024-05-09T14:21:14.026Z,101141.27
2024-05-09T14:23:41.707Z,101138.02
2024-05-09T14:26:09.203Z,101142.73
2024-05-09T14:28:36.917Z,101138.81
2024-05-09T14:31:04.657Z,101143.64
2024-05-09T14:33:32.682Z,101139.89
2024-05-09T14:36:00.418Z,101136.98
2024-05-09T14:38:28.115Z,101133.77
2024-05-09T14:40:56.011Z,101125.54
2024-05-09T14:43:23.731Z,101126.14
2024-05-09T14:45:51.547Z,101116.30
2024-05-09T14:48:19.946Z,101115.73
2024-05-09T14:50:48.010Z,101115.69
2024-05-09T14:53:15.678Z,101110.14
2024-05-09T14:55:43.963Z,101110.14
2024-05-09T14:58:12.677Z,101112.06
2024-05-09T15:00:45.847Z,101108.48
2024-05-09T15:03:21.358Z,101102.18
2024-05-09T15:05:50.347Z,101102.14
2024-05-09T15:08:19.294Z,101103.00
2024-05-09T15:10:49.035Z,101097.36
2024-05-09T15:13:19.223Z,101089.90
2024-05-09T15:15:47.088Z,101088.96
2024-05-09T15:18:14.804Z,101088.46
2024-05-09T15:20:45.704Z,101085.03
2024-05-09T15:23:13.711Z,101086.15
2024-05-09T15:25:41.356Z,101083.85
2024-05-09T15:28:09.597Z,101081.52
2024-05-09T15:30:37.865Z,101082.38
2024-05-09T15:33:07.117Z,101078.48
2024-05-09T15:35:36.041Z,101074.52
2024-05-09T15:38:04.821Z,101081.53
2024-05-09T15:40:39.128Z,101081.88
2024-05-09T15:43:09.767Z,101084.34
2024-05-09T15:45:39.987Z,101079.65
2024-05-09T15:48:08.754Z,101080.02
2024-05-09T15:50:40.607Z,101077.36
2024-05-09T15:53:10.968Z,101071.05
2024-05-09T15:55:39.590Z,101065.98
2024-05-09T15:58:07.736Z,101060.17
2024-05-09T16:00:39.639Z,101056.43
2024-05-09T16:03:10.796Z,101049.42
2024-05-09T16:05:39.625Z,101050.69
2024-05-09T16:08:07.577Z,101044.30
2024-05-09T16:10:36.127Z,101042.99
2024-05-09T16:13:04.284Z,101043.75
2024-05-09T16:15:32.319Z,101038.79
2024-05-09T16:18:00.333Z,101043.27
2024-05-09T16:20:37.237Z,101043.17
2024-05-09T16:23:08.754Z,101043.05
2024-05-09T16:25:37.094Z,101036.48
2024-05-09T16:28:08.598Z,101035.26
2024-05-09T16:30:39.616Z,101034.88
2024-05-09T16:33:09.287Z,101033.05
2024-05-09T16:35:37.711Z,101034.73
2024-05-09T16:38:05.727Z,101029.02
2024-05-09T16:40:38.118Z,101027.70
2024-05-09T16:43:09.479Z,101031.31
2024-05-09T16:45:43.231Z,101027.33
2024-05-09T16:48:11.282Z,101028.83
2024-05-09T16:50:39.086Z,101030.21
2024-05-09T16:53:07.225Z,101030.55
2024-05-09T16:55:35.732Z,101033.70
2024-05-09T16:58:04.460Z,101029.54
2024-05-09T17:00:40.210Z,101029.29
2024-05-09T17:03:14.262Z,101031.11
2024-05-09T17:05:45.239Z,101030.77
2024-05-09T17:08:15.514Z,101030.39
2024-05-09T17:10:55.506Z,101032.57
2024-05-09T17:13:23.725Z,101033.40
2024-05-09T17:15:51.707Z,101029.61
2024-05-09T17:18:19.472Z,101034.44
2024-05-09T17:20:47.416Z,101029.88
2024-05-09T17:23:15.146Z,101033.10
2024-05-09T17:25:43.032Z,101043.11
2024-05-09T17:28:11.222Z,101038.21
2024-05-09T17:30:41.438Z,101044.73
2024-05-09T17:33:11.593Z,101040.92
2024-05-09T17:35:40.360Z,101033.08
2024-05-09T17:38:08.106Z,101038.02
2024-05-09T17:40:37.788Z,101031.33
2024-05-09T17:43:09.281Z,101035.59
2024-05-09T17:45:40.572Z,101042.36
2024-05-09T17:48:10.790Z,101042.59
2024-05-09T17:50:39.940Z,101041.31
2024-05-09T17:53:07.945Z,101041.90
2024-05-09T17:55:36.138Z,101038.95
2024-05-09T17:58:04.758Z,101037.04
2024-05-09T18:00:38.922Z,101039.80
2024-05-09T18:03:13.707Z,101042.91
2024-05-09T18:05:44.575Z,101039.73
2024-05-09T18:08:13.375Z,101039.31
2024-05-09T18:10:41.726Z,101041.90
2024-05-09T18:13:10.468Z,101042.80
2024-05-09T18:15:38.945Z,101047.38
2024-05-09T18:18:07.513Z,101053.48
2024-05-09T18:20:42.915Z,101054.84
2024-05-09T18:23:14.823Z,101058.02
2024-05-09T18:25:43.706Z,101064.80
2024-05-09T18:28:11.458Z,101059.85
2024-05-09T18:30:39.821Z,101062.45
2024-05-09T18:33:09.596Z,101068.60
2024-05-09T18:35:37.366Z,101068.42
2024-05-09T18:38:05.494Z,101070.36
2024-05-09T18:40:36.584Z,101073.60
2024-05-09T18:43:07.584Z,101077.71
2024-05-09T18:45:37.688Z,101078.00
2024-05-09T18:48:07.418Z,101077.69
2024-05-09T18:50:38.958Z,101072.73
2024-05-09T18:53:12.554Z,101081.20
2024-05-09T18:55:41.625Z,101083.30
2024-05-09T18:58:09.536Z,101081.17
2024-05-09T19:00:40.030Z,101080.16
2024-05-09T19:03:12.839Z,101079.48
2024-05-09T19:05:43.859Z,101077.41
2024-05-09T19:08:13.185Z,101085.23
2024-05-09T19:10:41.199Z,101082.26
2024-05-09T19:13:12.214Z,101081.80
2024-05-09T19:15:42.546Z,101081.83
2024-05-09T19:18:11.998Z,101085.55
2024-05-09T19:20:39.986Z,101082.90
2024-05-09T19:23:07.903Z,101084.77
2024-05-09T19:25:36.125Z,101082.02
2024-05-09T19:28:05.020Z,101082.74
2024-05-09T19:30:38.927Z,101081.34
2024-05-09T19:33:11.930Z,101083.45
2024-05-09T19:35:41.472Z,101083.27
2024-05-09T19:38:09.101Z,101080.86
2024-05-09T19:40:36.954Z,101086.00
2024-05-09T19:43:05.966Z,101086.65
2024-05-09T19:45:35.162Z,101081.11
2024-05-09T19:48:04.872Z,101080.52
2024-05-09T19:50:40.951Z,101084.73
2024-05-09T19:53:12.612Z,101084.20
2024-05-09T19:55:41.251Z,101083.56
2024-05-09T19:58:09.482Z,101080.84
2024-05-09T20:00:39.610Z,101087.00
2024-05-09T20:03:13.926Z,101085.84
2024-05-09T20:05:43.559Z,101091.19
2024-05-09T20:08:11.321Z,101090.56
2024-05-09T20:10:39.083Z,101089.28
2024-05-09T20:13:08.168Z,101094.35
2024-05-09T20:15:37.384Z,101093.11
2024-05-09T20:18:06.170Z,101094.52
2024-05-09T20:20:39.070Z,101092.95
2024-05-09T20:23:10.370Z,101089.38
2024-05-09T20:25:38.030Z,101096.77
2024-05-09T20:28:06.033Z,101094.01
2024-05-09T20:30:34.777Z,101096.05
2024-05-09T20:33:04.954Z,101094.39
2024-05-09T20:35:34.102Z,101102.63
2024-05-09T20:38:03.002Z,101093.60
2024-05-09T20:40:35.522Z,101092.10
2024-05-09T20:43:07.065Z,101097.02
2024-05-09T20:45:35.300Z,101094.41
2024-05-09T20:48:03.264Z,101090.08
2024-05-09T20:50:37.883Z,101089.95
2024-05-09T20:53:12.692Z,101094.99
2024-05-09T20:55:41.588Z,101088.73
2024-05-09T20:58:09.855Z,101087.33
2024-05-09T21:00:41.557Z,101090.27
2024-05-09T21:03:13.142Z,101086.13
2024-05-09T21:05:42.081Z,101090.50
2024-05-09T21:08:09.877Z,101089.04
2024-05-09T21:10:37.945Z,101089.44
2024-05-09T21:13:06.817Z,101092.30
2024-05-09T21:15:35.639Z,101087.90
2024-05-09T21:18:04.339Z,101088.92
2024-05-09T21:20:33.998Z,101087.98
2024-05-09T21:23:02.264Z,101087.11
2024-05-09T21:25:30.698Z,101082.67
2024-05-09T21:27:58.345Z,101082.38
2024-05-09T21:30:33.080Z,101082.98
2024-05-09T21:33:09.281Z,101082.84
2024-05-09T21:35:38.141Z,101083.70
2024-05-09T21:38:06.829Z,101083.84
2024-05-09T21:40:36.217Z,101086.21
2024-05-09T21:43:05.825Z,101087.40
2024-05-09T21:45:34.021Z,101088.53
2024-05-09T21:48:05.597Z,101092.67
2024-05-09T21:50:39.691Z,101089.88
2024-05-09T21:53:10.709Z,101093.02
2024-05-09T21:55:38.457Z,101093.93
2024-05-09T21:58:06.191Z,101089.46
2024-05-09T22:00:37.988Z,101090.62
2024-05-09T22:03:07.483Z,101091.36
2024-05-09T22:05:37.115Z,101088.56
2024-05-09T22:08:05.405Z,101088.98
2024-05-09T22:10:35.585Z,101082.30
2024-05-09T22:13:05.862Z,101081.39
2024-05-09T22:15:34.990Z,101082.77
2024-05-09T22:18:02.792Z,101081.00
2024-05-09T22:20:36.819Z,101081.95
2024-05-09T22:23:07.663Z,101082.78
2024-05-09T22:25:36.315Z,101082.08
2024-05-09T22:28:04.436Z,101077.77
2024-05-09T22:30:37.054Z,101078.86
2024-05-09T22:33:08.280Z,101080.61
2024-05-09T22:35:36.864Z,101076.50
2024-05-09T22:38:04.553Z,101075.39
2024-05-09T22:40:42.392Z,101073.92
2024-05-09T22:43:20.674Z,101072.16
2024-05-09T22:45:50.123Z,101065.67
2024-05-09T22:48:18.407Z,101068.46
2024-05-09T22:50:46.049Z,101066.52
2024-05-09T22:53:13.560Z,101070.48
2024-05-09T22:55:41.593Z,101073.20
2024-05-09T22:58:09.323Z,101072.33
2024-05-09T23:00:37.103Z,101071.38
2024-05-09T23:03:05.096Z,101069.54
2024-05-09T23:05:33.120Z,101073.06
2024-05-09T23:08:01.735Z,101069.30
2024-05-09T23:10:35.571Z,101067.73
2024-05-09T23:13:06.367Z,101061.52
2024-05-09T23:15:34.530Z,101065.17
2024-05-09T23:18:02.393Z,101064.25
2024-05-09T23:20:36.884Z,101061.98
2024-05-09T23:23:07.598Z,101059.22
2024-05-09T23:25:36.142Z,101057.10
2024-05-09T23:28:04.156Z,101051.75
2024-05-09T23:30:37.679Z,101051.93
2024-05-09T23:33:09.844Z,101047.50
2024-05-09T23:35:38.532Z,101053.75
2024-05-09T23:38:06.202Z,101051.77
2024-05-09T23:40:38.736Z,101052.64
2024-05-09T23:43:09.763Z,101051.61
2024-05-09T23:45:37.876Z,101049.98
2024-05-09T23:48:06.037Z,101047.45
2024-05-09T23:50:36.901Z,101045.57
2024-05-09T23:53:07.758Z,101044.77
2024-05-09T23:55:36.884Z,101042.33
2024-05-09T23:58:05.443Z,101037.67
